Time;durP1;ratioP1;P1;durP2;ratioP2;P2;SDS_P1;SDS_P2;PMS_P1;PMS_P2;Temp;Humidity;BMP_temperature;BMP_pressure;BME280_temperature;BME280_humidity;BME280_pressure;Samples;Min_cycle;Max_cycle;Signal;HPM_P1;HPM_P2
2022/08/28 00:00:53;;;;;;;9.52;4.50;;;;;;;16.22;68.74;101737.97;5265720;28;20040;-70
2022/08/28 00:03:24;;;;;;;8.60;4.23;;;;;;;16.25;69.26;101737.06;5283847;28;20029;-70
2022/08/28 00:05:56;;;;;;;10.30;4.07;;;;;;;16.14;69.01;101737.28;5283238;28;20747;-70
2022/08/28 00:08:29;;;;;;;10.70;4.73;;;;;;;15.98;69.64;101740.22;5283404;28;20040;-70
2022/08/28 00:11:00;;;;;;;11.10;4.72;;;;;;;15.95;70.04;101737.66;5283273;28;20033;-70
2022/08/28 00:13:32;;;;;;;11.47;4.97;;;;;;;15.92;70.02;101732.44;5261937;28;20094;-70
2022/08/28 00:16:04;;;;;;;12.53;5.37;;;;;;;16.11;70.32;101746.09;5265092;28;20055;-71
2022/08/28 00:18:35;;;;;;;13.27;4.53;;;;;;;15.88;70.60;101743.94;5283579;28;20134;-71
2022/08/28 00:21:07;;;;;;;11.80;4.80;;;;;;;15.86;70.70;101746.59;5283197;28;20089;-71
2022/08/28 00:23:38;;;;;;;10.70;4.70;;;;;;;15.83;70.80;101741.38;5283706;28;20029;-71
2022/08/28 00:27:51;;;;;;;10.33;4.70;;;;;;;15.79;70.88;101741.47;5282983;28;20056;-71
2022/08/28 00:29:03;;;;;;;14.15;5.10;;;;;;;15.65;71.03;101734.69;5262836;28;20469;-71
2022/08/28 00:31:38;;;;;;;10.23;4.60;;;;;;;15.66;71.80;101739.06;5262382;28;20039;-70
2022/08/28 00:34:10;;;;;;;13.50;5.10;;;;;;;15.67;71.64;101740.78;5261646;28;20044;-70
2022/08/28 00:36:42;;;;;;;11.10;5.32;;;;;;;15.51;71.51;101744.59;5261084;28;20330;-71
2022/08/28 00:39:14;;;;;;;11.87;4.63;;;;;;;15.58;72.40;101753.22;5242133;28;20064;-70
2022/08/28 00:41:45;;;;;;;10.68;5.05;;;;;;;15.47;72.33;101746.41;5262694;28;20470;-70
2022/08/28 00:44:22;;;;;;;10.67;5.00;;;;;;;15.39;72.41;101744.81;5277335;28;20499;-70
2022/08/28 00:46:55;;;;;;;12.18;4.97;;;;;;;15.27;72.70;101745.88;5264127;28;20488;-70
2022/08/28 00:49:34;;;;;;;15.82;5.32;;;;;;;15.25;73.31;101743.28;5261385;28;20138;-70
2022/08/28 00:52:10;;;;;;;13.02;5.38;;;;;;;15.13;73.56;101747.00;5261512;28;20084;-70
2022/08/28 00:54:52;;;;;;;16.67;5.65;;;;;;;15.06;74.25;101747.97;5261436;28;20504;-70
2022/08/28 00:57:27;;;;;;;11.02;5.10;;;;;;;15.00;74.38;101741.97;5262317;28;20033;-73
2022/08/28 00:59:58;;;;;;;11.73;5.25;;;;;;;14.98;74.81;101749.00;5278967;28;20068;-71
2022/08/28 01:02:30;;;;;;;15.07;6.77;;;;;;;15.03;74.80;101748.00;5282511;28;20072;-71
2022/08/28 01:05:03;;;;;;;13.38;5.07;;;;;;;14.90;74.56;101759.59;5282478;28;20385;-71
2022/08/28 01:07:38;;;;;;;11.20;5.43;;;;;;;14.99;75.28;101767.34;5283035;28;20413;-71
2022/08/28 01:10:19;;;;;;;11.18;5.30;;;;;;;14.93;74.84;101767.44;5247854;28;20037;-69
2022/08/28 01:12:52;;;;;;;16.95;6.60;;;;;;;14.83;75.25;101764.09;5261917;28;20037;-70
2022/08/28 01:15:31;;;;;;;15.10;6.28;;;;;;;14.82;75.63;101766.75;5261000;28;20033;-70
2022/08/28 01:18:06;;;;;;;13.98;5.10;;;;;;;14.96;75.62;101777.91;5260054;28;20052;-71
2022/08/28 01:20:45;;;;;;;9.80;4.55;;;;;;;14.83;76.02;101761.47;5260912;28;20123;-71
2022/08/28 01:24:05;;;;;;;11.77;5.30;;;;;;;14.85;75.60;101764.94;5261345;28;20052;-71
2022/08/28 01:26:37;;;;;;;11.05;5.45;;;;;;;14.86;76.66;101765.78;5244492;28;20043;-70
2022/08/28 01:29:10;;;;;;;15.05;4.82;;;;;;;14.69;76.50;101763.44;5261325;28;20029;-71
2022/08/28 01:31:42;;;;;;;15.95;6.43;;;;;;;14.64;76.66;101767.88;5261922;28;20032;-71
2022/08/28 01:34:14;;;;;;;14.00;5.63;;;;;;;14.73;77.06;101767.72;5261042;28;20029;-70
2022/08/28 01:36:47;;;;;;;14.90;5.60;;;;;;;14.64;76.98;101766.09;5279666;28;20037;-70
2022/08/28 01:39:21;;;;;;;15.77;5.28;;;;;;;14.84;77.00;101772.81;5281598;28;20090;-70
2022/08/28 01:41:54;;;;;;;12.02;5.18;;;;;;;14.77;77.22;101767.66;5282653;28;20442;-71
2022/08/28 01:44:26;;;;;;;13.63;5.35;;;;;;;14.68;77.14;101774.78;5281708;28;20037;-72
2022/08/28 01:46:58;;;;;;;10.38;4.82;;;;;;;14.83;77.59;101773.69;5280867;28;20115;-72
2022/08/28 01:49:29;;;;;;;10.60;5.47;;;;;;;14.75;77.59;101776.47;5281980;28;20162;-71
2022/08/28 01:52:01;;;;;;;12.57;5.73;;;;;;;14.59;77.51;101775.78;5282138;28;20048;-71
2022/08/28 01:54:32;;;;;;;11.53;5.20;;;;;;;14.59;77.26;101774.03;5281986;28;20454;-71
2022/08/28 01:57:04;;;;;;;12.20;4.93;;;;;;;14.64;77.79;101781.00;5283098;28;20039;-71
2022/08/28 01:59:36;;;;;;;12.10;5.00;;;;;;;14.69;77.72;101787.03;5285721;28;20074;-70
2022/08/28 02:02:09;;;;;;;19.07;5.93;;;;;;;14.48;77.86;101770.66;5272187;28;20048;-70
2022/08/28 02:04:40;;;;;;;14.88;5.20;;;;;;;14.57;78.32;101777.53;5264845;28;20061;-71
2022/08/28 02:07:13;;;;;;;8.73;4.93;;;;;;;14.49;78.46;101782.00;5265392;28;20119;-70
2022/08/28 02:09:44;;;;;;;11.70;4.95;;;;;;;14.44;78.95;101782.09;5264078;28;20032;-71
2022/08/28 02:12:16;;;;;;;13.67;4.87;;;;;;;14.46;78.62;101780.31;5265480;28;20021;-70
2022/08/28 02:14:47;;;;;;;15.05;4.88;;;;;;;14.49;78.84;101779.38;5264590;28;20517;-70
2022/08/28 02:17:19;;;;;;;13.37;6.37;;;;;;;14.43;79.22;101790.00;5265703;28;20064;-70
2022/08/28 02:19:50;;;;;;;11.37;4.43;;;;;;;14.30;79.17;101789.28;5246688;28;20048;-70
2022/08/28 02:22:21;;;;;;;12.10;5.07;;;;;;;14.42;79.84;101791.72;5265462;28;20033;-69
2022/08/28 02:24:53;;;;;;;12.97;5.13;;;;;;;14.30;79.77;101790.13;5264939;28;20037;-70
2022/08/28 02:27:24;;;;;;;12.50;5.13;;;;;;;14.27;79.91;101797.19;5265277;28;20036;-70
2022/08/28 02:29:57;;;;;;;16.07;5.20;;;;;;;14.28;79.90;101791.91;5264286;28;20044;-70
2022/08/28 02:32:28;;;;;;;;;;;;;;;14.44;78.33;101787.34;5265427;28;20508;-71
2022/08/28 02:35:00;;;;;;;15.18;5.63;;;;;;;14.35;79.92;101790.06;5264210;28;19921;-72
2022/08/28 02:37:32;;;;;;;11.83;4.70;;;;;;;14.25;80.06;101793.69;5265002;28;20377;-70
2022/08/28 02:40:04;;;;;;;12.50;4.90;;;;;;;14.19;80.18;101794.63;5263959;28;20115;-69
2022/08/28 02:42:36;;;;;;;14.70;5.28;;;;;;;14.05;80.33;101792.16;5264883;28;20049;-70
2022/08/28 02:45:10;;;;;;;12.90;5.27;;;;;;;14.08;80.78;101796.50;5263906;28;20061;-70
2022/08/28 02:47:43;;;;;;;16.60;6.50;;;;;;;13.91;80.98;101789.72;5264958;28;20049;-70
2022/08/28 02:50:18;;;;;;;10.70;5.05;;;;;;;13.83;81.54;101787.16;5245964;28;20037;-70
2022/08/28 02:52:50;;;;;;;14.45;5.07;;;;;;;13.84;81.51;101788.03;5264745;28;20052;-69
2022/08/28 02:55:23;;;;;;;15.75;5.75;;;;;;;13.85;81.81;101788.00;5264033;28;20040;-70
2022/08/28 02:57:54;;;;;;;10.82;4.38;;;;;;;13.74;82.15;101791.63;5264779;28;20029;-70
2022/08/28 03:00:26;;;;;;;8.87;4.10;;;;;;;13.86;82.16;101792.38;5263673;28;20036;-69
2022/08/28 03:02:57;;;;;;;11.40;4.63;;;;;;;13.77;82.03;101796.84;5264583;28;20026;-69
2022/08/28 03:05:29;;;;;;;12.53;4.80;;;;;;;13.70;82.41;101785.56;5263842;28;20029;-69
2022/08/28 03:08:00;;;;;;;10.90;4.90;;;;;;;13.77;82.57;101786.34;5263382;28;20029;-69
2022/08/28 03:10:32;;;;;;;12.87;4.10;;;;;;;13.76;82.64;101800.34;5263537;28;20111;-69
2022/08/28 03:13:04;;;;;;;13.47;5.17;;;;;;;13.79;82.53;101798.53;5264398;28;20085;-69
2022/08/28 03:15:37;;;;;;;;;;;;;;;13.83;81.10;101794.16;5264037;28;20072;-69
2022/08/28 03:18:08;;;;;;;8.53;4.43;;;;;;;13.64;82.50;101790.84;5264098;28;19960;-70
2022/08/28 03:20:41;;;;;;;12.53;7.17;;;;;;;13.72;82.84;101801.22;5279838;28;20059;-70
2022/08/28 03:23:25;;;;;;;13.93;5.60;;;;;;;13.59;82.98;101803.13;5284971;28;20025;-70
2022/08/28 03:25:59;;;;;;;15.95;4.80;;;;;;;13.78;83.10;101809.03;5284459;28;20428;-70
2022/08/28 03:28:37;;;;;;;17.92;4.82;;;;;;;13.62;83.21;101805.69;5284300;28;20028;-70
2022/08/28 03:31:12;;;;;;;12.93;5.63;;;;;;;13.52;83.34;101810.16;5284142;28;20070;-70
2022/08/28 03:33:44;;;;;;;12.95;5.13;;;;;;;13.49;83.11;101808.44;5284308;28;20037;-70
2022/08/28 03:36:20;;;;;;;13.70;5.22;;;;;;;13.43;83.84;101815.50;5281920;28;20040;-70
2022/08/28 03:38:53;;;;;;;13.02;4.68;;;;;;;13.44;83.81;101815.47;5265279;28;20439;-70
2022/08/28 03:41:27;;;;;;;15.35;5.25;;;;;;;13.41;84.07;101822.47;5284248;28;20075;-69
2022/08/28 03:44:00;;;;;;;13.65;5.43;;;;;;;13.35;84.16;101823.41;5283845;28;20478;-70
2022/08/28 03:46:32;;;;;;;;;;;;;;;13.57;82.55;101823.22;5284623;28;20528;-70
2022/08/28 03:49:04;;;;;;;11.10;4.45;;;;;;;13.56;83.99;101819.72;5283820;28;20331;-70
2022/08/28 03:51:35;;;;;;;12.43;5.25;;;;;;;13.57;84.09;101820.59;5282050;28;20059;-70
2022/08/28 03:54:06;;;;;;;15.17;4.90;;;;;;;13.49;83.76;101820.66;5283802;28;20035;-70
2022/08/28 03:56:41;;;;;;;11.63;5.57;;;;;;;13.45;84.25;101822.44;5284040;28;20111;-69
2022/08/28 03:59:12;;;;;;;11.80;4.53;;;;;;;13.49;84.24;101823.28;5283798;28;20115;-70
2022/08/28 04:01:43;;;;;;;11.83;4.97;;;;;;;13.41;84.40;101825.09;5284292;28;20187;-70
2022/08/28 04:04:15;;;;;;;10.43;4.90;;;;;;;13.46;84.52;101831.19;5283301;28;20367;-70
2022/08/28 04:06:46;;;;;;;12.20;4.77;;;;;;;13.52;84.60;101819.75;5271165;28;20069;-70
2022/08/28 04:09:17;;;;;;;7.47;4.40;;;;;;;13.44;84.69;101823.34;5261996;28;20028;-70
2022/08/28 04:11:49;;;;;;;13.33;5.40;;;;;;;13.31;84.87;101824.25;5263241;28;20069;-69
2022/08/28 04:14:20;;;;;;;10.73;4.53;;;;;;;13.38;84.98;101822.47;5262284;28;20040;-70
2022/08/28 04:16:52;;;;;;;12.97;4.50;;;;;;;13.38;84.98;101822.47;5263446;28;20033;-70
2022/08/28 04:19:23;;;;;;;14.90;5.17;;;;;;;13.29;85.10;101818.16;5261914;28;20063;-70
2022/08/28 04:21:56;;;;;;;15.02;4.93;;;;;;;13.28;85.45;101819.03;5244910;28;20068;-70
2022/08/28 04:24:27;;;;;;;11.63;4.37;;;;;;;13.29;85.24;101819.03;5261989;28;20060;-70
2022/08/28 04:26:58;;;;;;;14.73;5.13;;;;;;;13.09;85.29;101827.03;5262972;28;20100;-70
2022/08/28 04:29:30;;;;;;;11.73;5.03;;;;;;;13.31;85.78;101827.75;5262090;28;20041;-70
2022/08/28 04:32:02;;;;;;;11.30;4.65;;;;;;;13.14;85.87;101830.50;5262809;28;20470;-70
2022/08/28 04:34:36;;;;;;;13.03;4.70;;;;;;;12.98;86.11;101838.47;5261877;28;20017;-70
2022/08/28 04:37:07;;;;;;;13.68;5.00;;;;;;;12.92;86.24;101834.13;5267162;28;20040;-70
2022/08/28 04:39:39;;;;;;;13.17;5.77;;;;;;;13.08;86.39;101835.75;5282335;28;20032;-69
2022/08/28 04:42:10;;;;;;;10.03;5.30;;;;;;;13.20;86.57;101840.06;5283188;28;20028;-69
2022/08/28 04:44:41;;;;;;;7.77;4.57;;;;;;;13.12;86.33;101840.09;5282640;28;20056;-70
2022/08/28 04:47:13;;;;;;;13.87;4.67;;;;;;;12.95;86.40;101836.72;5283217;28;20033;-70
2022/08/28 04:49:44;;;;;;;14.20;5.67;;;;;;;12.86;86.46;101840.25;5282637;28;20043;-70
2022/08/28 04:52:15;;;;;;;15.60;5.67;;;;;;;12.94;86.57;101845.44;5278610;28;20103;-70
2022/08/28 04:54:48;;;;;;;14.83;5.60;;;;;;;12.80;86.86;101836.78;5269793;28;20043;-70
2022/08/28 04:57:20;;;;;;;15.80;4.90;;;;;;;12.94;87.00;101843.72;5282806;28;20025;-70
2022/08/28 04:59:51;;;;;;;11.30;5.60;;;;;;;12.83;87.17;101842.91;5282202;28;20089;-70
2022/08/28 05:02:23;;;;;;;13.83;5.67;;;;;;;12.83;87.37;101842.91;5282883;28;20111;-71
2022/08/28 05:04:54;;;;;;;12.50;6.28;;;;;;;12.94;87.74;101848.94;5281855;28;20058;-70
2022/08/28 05:07:26;;;;;;;12.30;5.03;;;;;;;12.82;87.69;101846.38;5282938;28;20055;-71
2022/08/28 05:09:57;;;;;;;16.67;6.00;;;;;;;12.91;87.44;101850.69;5260902;28;20041;-71
2022/08/28 05:12:29;;;;;;;15.20;6.13;;;;;;;12.90;87.45;101865.53;5261575;28;20039;-70
2022/08/28 05:15:00;;;;;;;15.33;5.73;;;;;;;12.88;87.70;101867.28;5243425;28;20116;-70
2022/08/28 05:17:31;;;;;;;18.77;5.63;;;;;;;12.88;88.05;101862.06;5261612;28;20040;-70
2022/08/28 05:20:04;;;;;;;13.77;5.93;;;;;;;12.82;88.03;101864.69;5269616;28;20029;-70
2022/08/28 05:22:35;;;;;;;20.25;5.93;;;;;;;12.72;88.04;101861.25;5282686;28;20043;-70
2022/08/28 05:25:07;;;;;;;16.40;5.83;;;;;;;12.74;88.09;101872.56;5263613;28;20128;-70
2022/08/28 05:27:39;;;;;;;11.53;5.97;;;;;;;12.64;88.06;101862.16;5282301;28;20104;-69
2022/08/28 05:30:11;;;;;;;12.65;5.63;;;;;;;12.66;88.42;101876.97;5274055;28;20071;-70
2022/08/28 05:32:42;;;;;;;13.10;6.70;;;;;;;12.70;88.55;101877.81;5261211;28;20029;-70
2022/08/28 05:35:14;;;;;;;9.07;5.27;;;;;;;12.58;88.43;101874.38;5260624;28;20478;-71
2022/08/28 05:37:45;;;;;;;14.57;6.07;;;;;;;12.68;88.70;101872.59;5261566;28;20040;-70
2022/08/28 05:40:20;;;;;;;11.97;5.90;;;;;;;12.66;88.69;101881.34;5260861;28;20032;-70
2022/08/28 05:42:52;;;;;;;12.10;5.63;;;;;;;12.64;89.14;101872.63;5261421;28;20033;-70
2022/08/28 05:45:23;;;;;;;12.40;6.50;;;;;;;12.71;89.26;101879.59;5266466;28;20035;-70
2022/08/28 05:47:56;;;;;;;12.83;5.47;;;;;;;12.66;89.28;101871.75;5282006;28;20108;-70
2022/08/28 05:50:27;;;;;;;12.52;5.63;;;;;;;12.75;89.42;101882.19;5281790;28;20036;-70
2022/08/28 05:52:58;;;;;;;13.40;6.43;;;;;;;12.58;89.32;101881.38;5282560;28;20044;-70
2022/08/28 05:55:30;;;;;;;12.20;6.63;;;;;;;12.83;89.71;101886.50;5281396;28;20102;-70
2022/08/28 05:58:27;;;;;;;10.73;6.67;;;;;;;12.79;89.48;101884.78;5282273;28;20033;-70
2022/08/28 06:00:53;;;;;;;14.07;6.60;;;;;;;12.74;89.23;101883.03;5279103;28;20462;-70
2022/08/28 06:03:24;;;;;;;18.77;6.70;;;;;;;12.88;89.20;101889.94;5281935;28;20024;-70
2022/08/28 06:05:55;;;;;;;14.60;6.67;;;;;;;12.86;89.23;101884.72;5281254;28;20033;-69
2022/08/28 06:08:27;;;;;;;16.20;6.23;;;;;;;13.01;89.73;101888.16;5281801;28;20393;-70
2022/08/28 06:11:01;;;;;;;11.65;5.97;;;;;;;12.98;88.89;101901.28;5281119;28;20591;-70
2022/08/28 06:13:33;;;;;;;13.90;6.30;;;;;;;13.17;89.55;101897.69;5281332;28;20044;-70
2022/08/28 06:16:07;;;;;;;17.23;6.72;;;;;;;13.19;88.92;101905.53;5277613;28;20033;-71
2022/08/28 06:18:39;;;;;;;11.77;5.57;;;;;;;13.26;88.46;101900.22;5261086;28;20037;-70
2022/08/28 06:21:10;;;;;;;11.67;5.87;;;;;;;13.27;88.49;101906.34;5242564;28;20117;-70
2022/08/28 06:23:43;;;;;;;15.80;5.20;;;;;;;13.48;88.93;101897.50;5242862;28;20117;-70
2022/08/28 06:26:14;;;;;;;15.05;6.72;;;;;;;13.52;88.33;101899.22;5260579;28;20029;-70
2022/08/28 06:28:45;;;;;;;16.60;5.87;;;;;;;13.66;88.67;101896.50;5260342;28;20044;-70
2022/08/28 06:31:17;;;;;;;14.70;7.07;;;;;;;13.67;88.26;101903.50;5261329;28;20386;-70
2022/08/28 06:33:48;;;;;;;12.90;4.90;;;;;;;13.75;88.11;101904.28;5259723;28;20040;-70
2022/08/28 06:36:20;;;;;;;19.40;5.60;;;;;;;13.82;87.69;101911.22;5261023;28;20120;-70
2022/08/28 06:38:54;;;;;;;13.45;4.85;;;;;;;13.95;87.63;101905.88;5259992;28;20064;-70
2022/08/28 06:41:26;;;;;;;17.08;5.25;;;;;;;13.97;86.90;101904.09;5261029;28;20036;-70
2022/08/28 06:43:59;;;;;;;14.50;5.55;;;;;;;13.98;86.58;101913.72;5261531;28;20040;-70
2022/08/28 06:46:33;;;;;;;13.45;4.60;;;;;;;14.03;86.10;101910.16;5264965;28;20112;-72
2022/08/28 06:49:06;;;;;;;11.10;5.15;;;;;;;14.17;85.82;101917.03;5283875;28;20070;-70
2022/08/28 06:51:38;;;;;;;14.65;5.45;;;;;;;14.34;86.27;101922.97;5285116;28;20048;-70
2022/08/28 06:54:09;;;;;;;15.82;5.45;;;;;;;14.39;85.49;101921.19;5284394;28;20383;-71
2022/08/28 06:56:41;;;;;;;13.43;5.30;;;;;;;14.52;85.44;101923.66;5285370;28;20033;-71
2022/08/28 06:59:12;;;;;;;12.33;4.80;;;;;;;14.67;83.98;101920.03;5284669;28;20485;-71
2022/08/28 07:01:44;;;;;;;18.53;5.10;;;;;;;14.73;85.09;101918.22;5284796;28;20032;-71
2022/08/28 07:04:15;;;;;;;18.87;6.50;;;;;;;14.80;83.19;101913.75;5282225;28;20028;-71
2022/08/28 07:06:49;;;;;;;12.93;5.50;;;;;;;14.94;82.92;101914.44;5285114;28;20385;-71
2022/08/28 07:09:21;;;;;;;18.48;6.20;;;;;;;15.05;82.94;101923.94;5283822;28;20024;-71
2022/08/28 07:11:53;;;;;;;15.05;5.07;;;;;;;15.14;81.79;101919.41;5285074;28;20141;-70
2022/08/28 07:14:25;;;;;;;13.83;5.00;;;;;;;15.25;81.72;101919.28;5284052;28;20065;-71
2022/08/28 07:16:56;;;;;;;13.77;5.90;;;;;;;15.36;81.14;101918.25;5284738;28;20083;-71
2022/08/28 07:19:27;;;;;;;14.13;5.20;;;;;;;15.39;81.21;101913.84;5280850;28;20064;-71
2022/08/28 07:21:59;;;;;;;12.97;4.60;;;;;;;15.54;80.48;101922.38;5284856;28;20028;-71
2022/08/28 07:24:30;;;;;;;15.17;4.97;;;;;;;15.62;79.70;101917.88;5280331;28;20151;-71
2022/08/28 07:27:04;;;;;;;13.17;4.80;;;;;;;15.76;79.36;101923.81;5263625;28;20028;-71
2022/08/28 07:29:35;;;;;;;13.43;5.00;;;;;;;15.90;79.63;101927.97;5263335;28;20032;-71
2022/08/28 07:32:07;;;;;;;11.50;4.70;;;;;;;16.02;77.55;101928.63;5263458;28;20045;-71
2022/08/28 07:34:40;;;;;;;15.02;4.47;;;;;;;16.13;77.26;101919.66;5277947;28;20041;-70
2022/08/28 07:37:12;;;;;;;12.77;5.07;;;;;;;16.30;76.48;101922.00;5284298;28;20070;-71
2022/08/28 07:39:43;;;;;;;11.57;3.80;;;;;;;16.38;76.73;101925.34;5265475;28;20029;-71
2022/08/28 07:44:48;;;;;;;14.37;4.50;;;;;;;16.49;74.87;101938.31;5284155;28;20036;-70
2022/08/28 07:45:06;;;;;;;11.90;3.90;;;;;;;16.67;74.49;101939.72;5283199;28;20195;-69
2022/08/28 07:47:38;;;;;;;8.20;3.78;;;;;;;16.73;73.10;101937.84;5284033;28;20112;-70
2022/08/28 07:50:09;;;;;;;10.90;3.10;;;;;;;16.70;70.42;101945.78;5281644;28;20066;-71
2022/08/28 07:52:41;;;;;;;12.77;3.50;;;;;;;16.81;71.39;101939.44;5283369;28;20087;-70
2022/08/28 07:55:13;;;;;;;10.73;3.65;;;;;;;16.91;72.09;101944.50;5280455;28;20032;-70
2022/08/28 07:57:44;;;;;;;15.63;3.97;;;;;;;17.03;70.54;101940.75;5263470;28;20462;-70
2022/08/28 08:00:15;;;;;;;12.43;3.53;;;;;;;17.02;69.38;101940.81;5262621;28;20036;-70
2022/08/28 08:02:47;;;;;;;10.40;3.70;;;;;;;17.21;70.56;101947.41;5261252;28;20116;-69
2022/08/28 08:05:18;;;;;;;13.03;4.37;;;;;;;17.17;68.09;101951.00;5275046;28;20043;-70
2022/08/28 08:07:51;;;;;;;9.43;3.00;;;;;;;17.35;69.20;101957.63;5268156;28;20116;-70
2022/08/28 08:10:22;;;;;;;11.10;3.40;;;;;;;17.44;67.87;101951.28;5262329;28;20041;-70
2022/08/28 08:12:53;;;;;;;7.40;3.10;;;;;;;17.64;67.03;101951.66;5248764;28;20043;-70
2022/08/28 08:15:25;;;;;;;10.27;3.63;;;;;;;17.79;68.04;101950.47;5282290;28;20531;-70
2022/08/28 08:17:56;;;;;;;10.27;3.07;;;;;;;17.65;64.70;101942.00;5282441;28;20469;-71
2022/08/28 08:20:28;;;;;;;11.63;3.40;;;;;;;17.55;66.39;101961.56;5255930;28;20084;-70
2022/08/28 08:22:59;;;;;;;12.67;3.33;;;;;;;17.45;66.26;101956.53;5260100;28;20570;-70
2022/08/28 08:25:30;;;;;;;11.43;3.73;;;;;;;17.53;66.80;101963.38;5270780;28;20096;-70
2022/08/28 08:28:02;;;;;;;18.57;4.20;;;;;;;17.59;66.69;101966.75;5282604;28;20056;-70
2022/08/28 08:30:34;;;;;;;14.48;2.83;;;;;;;17.61;65.92;101969.34;5281455;28;20465;-70
2022/08/28 08:33:05;;;;;;;8.20;2.53;;;;;;;17.68;65.63;101968.31;5264123;28;20042;-71
2022/08/28 08:35:37;;;;;;;12.33;2.90;;;;;;;17.57;65.46;101965.91;5263431;28;20108;-70
2022/08/28 08:38:08;;;;;;;8.43;2.37;;;;;;;17.53;64.90;101968.66;5280850;28;20401;-70
2022/08/28 08:40:40;;;;;;;9.70;2.92;;;;;;;17.76;67.78;101963.72;5281943;28;20032;-70
2022/08/28 08:43:15;;;;;;;9.40;2.73;;;;;;;17.89;66.42;101971.34;5281410;28;20039;-70
2022/08/28 08:45:48;;;;;;;11.55;3.22;;;;;;;18.42;65.91;101963.84;5282133;28;20035;-70
2022/08/28 08:48:28;;;;;;;9.27;3.13;;;;;;;18.85;66.24;101956.53;5282142;28;20473;-70
2022/08/28 08:51:14;;;;;;;10.32;2.90;;;;;;;18.86;65.51;101956.47;5277255;28;20523;-70
2022/08/28 08:54:04;;;;;;;10.00;2.53;;;;;;;19.08;64.62;101962.00;5281941;28;20048;-70
2022/08/28 08:56:37;;;;;;;7.72;2.58;;;;;;;19.16;59.73;101945.94;5281716;28;20120;-70
2022/08/28 08:59:15;;;;;;;5.93;2.45;;;;;;;19.36;59.58;101955.03;5281075;28;20078;-70
2022/08/28 09:01:57;;;;;;;9.73;2.55;;;;;;;19.53;58.61;101957.13;5275306;28;20047;-70
2022/08/28 09:04:38;;;;;;;8.20;2.97;;;;;;;19.78;57.80;101957.25;5261195;28;20029;-70
2022/08/28 09:07:18;;;;;;;9.05;2.97;;;;;;;20.00;57.06;101952.09;5266218;28;20017;-71
2022/08/28 09:09:52;;;;;;;6.93;2.90;;;;;;;19.79;55.92;101954.53;5269215;28;20108;-71
2022/08/28 09:12:30;;;;;;;6.20;2.35;;;;;;;19.62;59.97;101956.84;5270632;28;20152;-70
2022/08/28 09:15:22;;;;;;;6.72;2.47;;;;;;;19.51;60.67;101959.81;5272410;28;20086;-70
2022/08/28 09:18:14;;;;;;;5.75;2.53;;;;;;;19.80;58.14;101958.06;5280858;28;20107;-70
2022/08/28 09:20:51;;;;;;;7.75;2.97;;;;;;;20.21;57.07;101951.34;5252735;28;20069;-70
2022/08/28 09:23:26;;;;;;;7.90;2.22;;;;;;;20.43;58.30;101955.03;5269801;28;20031;-70
2022/08/28 09:26:01;;;;;;;5.88;2.25;;;;;;;20.54;54.87;101950.22;5264073;28;20214;-70
2022/08/28 09:28:36;;;;;;;9.48;2.65;;;;;;;20.67;53.25;101954.19;5271795;28;20059;-70
2022/08/28 09:31:39;;;;;;;5.93;2.38;;;;;;;20.97;53.94;101951.31;5263675;28;20036;-72
2022/08/28 09:34:33;;;;;;;6.13;2.13;;;;;;;21.40;54.87;101947.00;5259770;28;20114;-70
2022/08/28 09:37:07;;;;;;;6.57;2.55;;;;;;;21.05;51.57;101951.03;5260554;28;20467;-71
2022/08/28 09:39:39;;;;;;;6.60;3.28;;;;;;;21.08;51.37;101945.63;5278639;28;20029;-70
2022/08/28 09:45:12;;;;;;;5.47;2.30;;;;;;;21.33;53.69;101947.28;5267959;28;20073;-71
2022/08/28 09:47:51;;;;;;;;;;;;;;;21.79;54.72;101959.59;5259331;28;20041;-70
2022/08/28 09:50:37;;;;;;;5.78;2.10;;;;;;;22.06;51.27;101962.03;5260979;28;20103;-70
2022/08/28 09:53:08;;;;;;;8.07;2.53;;;;;;;21.90;49.44;101955.66;5259269;28;20045;-69
2022/08/28 09:56:21;;;;;;;7.87;2.57;;;;;;;21.64;50.57;101957.59;5258480;28;20149;-69
2022/08/28 09:59:06;;;;;;;;;;;;;;;21.45;48.62;101963.59;5267435;28;20398;-69
2022/08/28 10:01:40;;;;;;;8.05;2.70;;;;;;;20.92;49.71;101958.59;5263181;28;19965;-71
2022/08/28 10:04:33;;;;;;;7.93;2.53;;;;;;;21.03;50.78;101959.03;5260027;28;20033;-70
2022/08/28 10:07:14;;;;;;;;;;;;;;;21.40;49.54;101962.91;5260948;28;20478;-69
2022/08/28 10:10:04;;;;;;;8.18;2.30;;;;;;;21.39;48.82;101962.97;5261131;28;19916;-69
2022/08/28 10:12:44;;;;;;;7.60;2.47;;;;;;;21.78;48.39;101967.63;5260300;28;20095;-70
2022/08/28 10:16:03;;;;;;;7.07;2.58;;;;;;;22.20;51.10;101962.31;5243370;28;20124;-69
2022/08/28 10:18:50;;;;;;;7.22;2.60;;;;;;;22.56;49.78;101951.03;5261190;28;20478;-70
2022/08/28 10:21:36;;;;;;;6.20;2.33;;;;;;;23.00;49.43;101949.06;5264417;28;20033;-70
2022/08/28 10:24:43;;;;;;;5.90;2.15;;;;;;;23.60;48.26;101952.41;5265796;28;20025;-69
2022/08/28 10:27:23;;;;;;;6.53;2.10;;;;;;;23.69;44.45;101951.09;5253385;28;20064;-69
2022/08/28 10:30:03;;;;;;;3.97;1.95;;;;;;;24.01;43.77;101965.47;5265149;28;20037;-69
2022/08/28 10:32:40;;;;;;;4.97;2.30;;;;;;;24.25;45.76;101959.84;5246402;28;20094;-70
2022/08/28 10:35:35;;;;;;;7.88;2.67;;;;;;;23.22;45.78;101955.13;5265038;28;20044;-70
2022/08/28 10:38:09;;;;;;;6.65;1.95;;;;;;;22.16;47.27;101959.84;5264195;28;20488;-70
2022/08/28 10:40:58;;;;;;;9.30;2.72;;;;;;;21.72;47.34;101954.59;5264390;28;20083;-70
2022/08/28 10:43:33;;;;;;;6.78;2.10;;;;;;;21.75;49.87;101962.44;5263859;28;20474;-69
2022/08/28 10:46:45;;;;;;;6.30;2.30;;;;;;;22.34;48.16;101955.56;5264742;28;20059;-69
2022/08/28 10:49:25;;;;;;;9.45;2.88;;;;;;;22.82;44.19;101945.47;5263186;28;20051;-69
2022/08/28 10:52:06;;;;;;;5.93;2.25;;;;;;;23.76;43.03;101949.81;5263756;28;20464;-69
2022/08/28 10:54:53;;;;;;;5.40;2.10;;;;;;;24.06;45.51;101956.41;5264360;28;20037;-69
2022/08/28 10:57:43;;;;;;;8.85;2.55;;;;;;;25.16;44.52;101949.63;5263777;28;20175;-70
2022/08/28 11:00:23;;;;;;;5.22;1.92;;;;;;;25.45;41.07;101941.81;5264490;28;20025;-69
2022/08/28 11:03:09;;;;;;;5.80;2.28;;;;;;;25.72;40.51;101954.53;5263090;28;20394;-70
2022/08/28 11:05:52;;;;;;;6.68;2.30;;;;;;;25.55;43.33;101939.47;5264496;28;20085;-69
2022/08/28 11:08:27;;;;;;;5.50;2.28;;;;;;;24.54;39.63;101950.31;5281002;28;20153;-70
2022/08/28 11:11:01;;;;;;;7.15;2.70;;;;;;;23.45;41.32;101967.31;5284614;28;20025;-70
2022/08/28 11:13:55;;;;;;;7.28;2.25;;;;;;;22.62;44.19;101962.28;5283989;28;20028;-69
2022/08/28 11:16:27;;;;;;;6.70;2.70;;;;;;;22.54;46.31;101966.19;5266461;28;20062;-69
2022/08/28 11:19:22;;;;;;;5.40;2.42;;;;;;;22.60;45.51;101957.06;5284844;28;20032;-70
2022/08/28 11:22:07;;;;;;;5.85;2.33;;;;;;;23.03;46.13;101951.56;5267501;28;20063;-70
2022/08/28 11:24:38;;;;;;;5.35;2.30;;;;;;;24.80;42.09;101955.22;5263890;28;20103;-69
2022/08/28 11:27:35;;;;;;;5.77;2.43;;;;;;;24.96;40.22;101949.91;5263288;28;20061;-69
2022/08/28 11:30:14;;;;;;;4.53;1.92;;;;;;;25.76;43.86;101956.94;5263151;28;20159;-69
2022/08/28 11:32:51;;;;;;;8.00;2.17;;;;;;;26.10;39.24;101956.75;5262699;28;20052;-69
2022/08/28 11:35:28;;;;;;;5.38;1.92;;;;;;;27.11;36.87;101952.31;5263707;28;20029;-69
2022/08/28 11:38:00;;;;;;;5.85;2.00;;;;;;;27.42;34.17;101940.50;5257930;28;20043;-70
2022/08/28 11:40:31;;;;;;;;;;;;;;;28.76;34.99;101945.75;5267245;28;20398;-69
2022/08/28 11:43:13;;;;;;;8.00;2.50;;;;;;;27.67;35.57;101946.91;5262141;28;19931;-69
2022/08/28 11:45:44;;;;;;;4.78;3.05;;;;;;;27.04;33.90;101941.13;5279709;28;20367;-71
2022/08/28 11:48:22;;;;;;;;;;;;;;;27.58;35.26;101944.81;5283490;28;20020;-69
2022/08/28 11:51:05;;;;;;;5.65;1.98;;;;;;;26.56;35.68;101954.84;5283369;28;20045;-69
2022/08/28 11:54:21;;;;;;;7.72;2.20;;;;;;;27.29;34.59;101948.44;5264384;28;20044;-71
2022/08/28 11:56:58;;;;;;;9.73;2.88;;;;;;;26.62;34.23;101952.72;5177974;28;20075;-70
2022/08/28 12:00:00;;;;;;;8.18;2.13;;;;;;;25.30;36.37;101956.91;5177123;28;20030;-70
2022/08/28 12:02:42;;;;;;;5.17;2.10;;;;;;;24.67;40.72;101961.19;5244875;28;20048;-70